sensor_id;sensor_type;location;lat;lon;timestamp;temperature;humidity
27423;DHT22;14878;50.778;0.258;2022-12-07T00:00:45;4.40;99.90
27423;DHT22;14878;50.778;0.258;2022-12-07T00:01:47;4.40;99.90
27423;DHT22;14878;50.778;0.258;2022-12-07T00:02:47;4.40;99.90
27423;DHT22;14878;50.778;0.258;2022-12-07T00:03:49;4.40;99.90
27423;DHT22;14878;50.778;0.258;2022-12-07T00:04:51;4.30;99.90
27423;DHT22;14878;50.778;0.258;2022-12-07T00:05:51;4.40;99.90
27423;DHT22;14878;50.778;0.258;2022-12-07T00:06:52;4.40;99.90
27423;DHT22;14878;50.778;0.258;2022-12-07T00:07:53;4.40;99.90
27423;DHT22;14878;50.778;0.258;2022-12-07T00:08:54;4.40;99.90
27423;DHT22;14878;50.778;0.258;2022-12-07T00:09:54;4.30;99.90
27423;DHT22;14878;50.778;0.258;2022-12-07T00:10:59;4.30;99.90
27423;DHT22;14878;50.778;0.258;2022-12-07T00:12:00;4.40;99.90
27423;DHT22;14878;50.778;0.258;2022-12-07T00:13:01;4.40;99.90
27423;DHT22;14878;50.778;0.258;2022-12-07T00:14:04;4.40;99.90
27423;DHT22;14878;50.778;0.258;2022-12-07T00:15:06;4.40;99.90
27423;DHT22;14878;50.778;0.258;2022-12-07T00:16:09;4.40;99.90
27423;DHT22;14878;50.778;0.258;2022-12-07T00:17:10;4.40;99.90
27423;DHT22;14878;50.778;0.258;2022-12-07T00:18:11;4.30;99.90
27423;DHT22;14878;50.778;0.258;2022-12-07T00:19:13;4.40;99.90
27423;DHT22;14878;50.778;0.258;2022-12-07T00:20:14;4.40;99.90
27423;DHT22;14878;50.778;0.258;2022-12-07T00:21:23;4.40;99.90
27423;DHT22;14878;50.778;0.258;2022-12-07T00:22:24;4.40;99.90
27423;DHT22;14878;50.778;0.258;2022-12-07T00:23:24;4.60;99.90
27423;DHT22;14878;50.778;0.258;2022-12-07T00:24:25;4.40;99.90
27423;DHT22;14878;50.778;0.258;2022-12-07T00:25:26;4.40;99.90
27423;DHT22;14878;50.778;0.258;2022-12-07T00:26:29;4.40;99.90
27423;DHT22;14878;50.778;0.258;2022-12-07T00:27:30;4.50;99.90
27423;DHT22;14878;50.778;0.258;2022-12-07T00:28:30;4.50;99.90
27423;DHT22;14878;50.778;0.258;2022-12-07T00:29:31;4.70;99.90
27423;DHT22;14878;50.778;0.258;2022-12-07T00:30:32;4.50;99.90
27423;DHT22;14878;50.778;0.258;2022-12-07T00:31:35;4.40;99.90
27423;DHT22;14878;50.778;0.258;2022-12-07T00:32:38;4.80;99.90
27423;DHT22;14878;50.778;0.258;2022-12-07T00:33:39;4.50;99.90
27423;DHT22;14878;50.778;0.258;2022-12-07T00:34:40;4.40;99.90
27423;DHT22;14878;50.778;0.258;2022-12-07T00:35:41;4.50;99.90
27423;DHT22;14878;50.778;0.258;2022-12-07T00:36:42;4.50;99.90
27423;DHT22;14878;50.778;0.258;2022-12-07T00:37:42;4.50;99.90
27423;DHT22;14878;50.778;0.258;2022-12-07T00:38:43;4.50;99.90
27423;DHT22;14878;50.778;0.258;2022-12-07T00:39:45;4.50;99.90
27423;DHT22;14878;50.778;0.258;2022-12-07T00:40:54;4.50;99.90
27423;DHT22;14878;50.778;0.258;2022-12-07T00:41:55;4.60;99.90
27423;DHT22;14878;50.778;0.258;2022-12-07T00:42:56;4.50;99.90
27423;DHT22;14878;50.778;0.258;2022-12-07T00:43:57;4.40;99.90
27423;DHT22;14878;50.778;0.258;2022-12-07T00:44:58;4.50;99.90
27423;DHT22;14878;50.778;0.258;2022-12-07T00:45:58;4.40;99.90
27423;DHT22;14878;50.778;0.258;2022-12-07T00:46:59;4.40;99.90
27423;DHT22;14878;50.778;0.258;2022-12-07T00:48:00;4.40;99.90
27423;DHT22;14878;50.778;0.258;2022-12-07T00:49:00;4.40;99.90
27423;DHT22;14878;50.778;0.258;2022-12-07T00:50:01;4.40;99.90
27423;DHT22;14878;50.778;0.258;2022-12-07T00:51:03;4.40;99.90
27423;DHT22;14878;50.778;0.258;2022-12-07T00:52:04;4.40;99.90
27423;DHT22;14878;50.778;0.258;2022-12-07T00:53:04;4.40;99.90
27423;DHT22;14878;50.778;0.258;2022-12-07T00:54:05;4.30;99.90
27423;DHT22;14878;50.778;0.258;2022-12-07T00:55:06;4.40;99.90
27423;DHT22;14878;50.778;0.258;2022-12-07T00:56:21;4.40;99.90
27423;DHT22;14878;50.778;0.258;2022-12-07T00:57:22;4.50;99.90
27423;DHT22;14878;50.778;0.258;2022-12-07T00:58:23;4.40;99.90
27423;DHT22;14878;50.778;0.258;2022-12-07T00:59:24;4.50;99.90
27423;DHT22;14878;50.778;0.258;2022-12-07T01:00:24;4.40;99.90
27423;DHT22;14878;50.778;0.258;2022-12-07T01:01:28;4.40;99.90
27423;DHT22;14878;50.778;0.258;2022-12-07T01:02:29;4.40;99.90
27423;DHT22;14878;50.778;0.258;2022-12-07T01:03:30;4.30;99.90
27423;DHT22;14878;50.778;0.258;2022-12-07T01:04:33;4.40;99.90
27423;DHT22;14878;50.778;0.258;2022-12-07T01:05:34;4.30;99.90
27423;DHT22;14878;50.778;0.258;2022-12-07T01:06:35;4.30;99.90
27423;DHT22;14878;50.778;0.258;2022-12-07T01:07:36;4.30;99.90
27423;DHT22;14878;50.778;0.258;2022-12-07T01:08:36;4.30;99.90
27423;DHT22;14878;50.778;0.258;2022-12-07T01:09:37;4.30;99.90
27423;DHT22;14878;50.778;0.258;2022-12-07T01:10:38;4.40;99.90
27423;DHT22;14878;50.778;0.258;2022-12-07T01:11:38;4.30;99.90
27423;DHT22;14878;50.778;0.258;2022-12-07T01:12:39;4.30;99.90
27423;DHT22;14878;50.778;0.258;2022-12-07T01:13:41;4.30;99.90
27423;DHT22;14878;50.778;0.258;2022-12-07T01:14:42;4.30;99.90
27423;DHT22;14878;50.778;0.258;2022-12-07T01:15:44;4.20;99.90
27423;DHT22;14878;50.778;0.258;2022-12-07T01:16:44;3.30;99.90
27423;DHT22;14878;50.778;0.258;2022-12-07T01:17:45;4.30;99.90
27423;DHT22;14878;50.778;0.258;2022-12-07T01:18:48;4.30;99.90
27423;DHT22;14878;50.778;0.258;2022-12-07T01:19:49;4.40;99.90
27423;DHT22;14878;50.778;0.258;2022-12-07T01:21:00;4.30;99.90
27423;DHT22;14878;50.778;0.258;2022-12-07T01:22:00;4.30;99.90
27423;DHT22;14878;50.778;0.258;2022-12-07T01:23:01;4.30;99.90
27423;DHT22;14878;50.778;0.258;2022-12-07T01:24:04;4.20;99.90
27423;DHT22;14878;50.778;0.258;2022-12-07T01:25:06;4.20;99.90
27423;DHT22;14878;50.778;0.258;2022-12-07T01:26:10;4.30;99.90
27423;DHT22;14878;50.778;0.258;2022-12-07T01:27:11;4.30;99.90
27423;DHT22;14878;50.778;0.258;2022-12-07T01:28:11;4.30;99.90
27423;DHT22;14878;50.778;0.258;2022-12-07T01:29:12;4.30;99.90
27423;DHT22;14878;50.778;0.258;2022-12-07T01:30:13;4.30;99.90
27423;DHT22;14878;50.778;0.258;2022-12-07T01:31:16;4.40;99.90
27423;DHT22;14878;50.778;0.258;2022-12-07T01:32:17;4.30;99.90
27423;DHT22;14878;50.778;0.258;2022-12-07T01:33:18;4.30;99.90
27423;DHT22;14878;50.778;0.258;2022-12-07T01:34:19;4.30;99.90
27423;DHT22;14878;50.778;0.258;2022-12-07T01:35:19;4.30;99.90
27423;DHT22;14878;50.778;0.258;2022-12-07T01:37:22;4.20;99.90
27423;DHT22;14878;50.778;0.258;2022-12-07T01:38:23;4.30;99.90
27423;DHT22;14878;50.778;0.258;2022-12-07T01:39:24;4.50;99.90
27423;DHT22;14878;50.778;0.258;2022-12-07T01:40:25;4.20;99.90
27423;DHT22;14878;50.778;0.258;2022-12-07T01:41:28;4.20;99.90
27423;DHT22;14878;50.778;0.258;2022-12-07T01:42:30;4.20;99.90
27423;DHT22;14878;50.778;0.258;2022-12-07T01:43:32;4.20;99.90
27423;DHT22;14878;50.778;0.258;2022-12-07T01:46:12;4.20;99.90
27423;DHT22;14878;50.778;0.258;2022-12-07T01:47:13;4.20;99.90
27423;DHT22;14878;50.778;0.258;2022-12-07T01:48:17;4.20;99.90
27423;DHT22;14878;50.778;0.258;2022-12-07T01:49:26;4.20;99.90
27423;DHT22;14878;50.778;0.258;2022-12-07T01:50:28;4.20;99.90
27423;DHT22;14878;50.778;0.258;2022-12-07T01:51:32;4.20;99.90
27423;DHT22;14878;50.778;0.258;2022-12-07T01:52:33;4.10;99.90
27423;DHT22;14878;50.778;0.258;2022-12-07T01:53:38;4.20;99.90
27423;DHT22;14878;50.778;0.258;2022-12-07T01:54:41;4.10;99.90
27423;DHT22;14878;50.778;0.258;2022-12-07T01:55:44;4.10;99.90
27423;DHT22;14878;50.778;0.258;2022-12-07T01:56:50;4.10;99.90
27423;DHT22;14878;50.778;0.258;2022-12-07T01:57:54;4.20;99.90
27423;DHT22;14878;50.778;0.258;2022-12-07T01:58:57;4.20;99.90
27423;DHT22;14878;50.778;0.258;2022-12-07T01:59:59;4.20;99.90
27423;DHT22;14878;50.778;0.258;2022-12-07T02:01:00;4.30;99.90
27423;DHT22;14878;50.778;0.258;2022-12-07T02:02:02;4.10;99.90
27423;DHT22;14878;50.778;0.258;2022-12-07T02:03:39;4.10;99.90
27423;DHT22;14878;50.778;0.258;2022-12-07T02:04:40;4.10;99.90
27423;DHT22;14878;50.778;0.258;2022-12-07T02:05:41;4.10;99.90
27423;DHT22;14878;50.778;0.258;2022-12-07T02:06:44;4.10;99.90
27423;DHT22;14878;50.778;0.258;2022-12-07T02:07:47;4.10;99.90
27423;DHT22;14878;50.778;0.258;2022-12-07T02:08:49;4.10;99.90
27423;DHT22;14878;50.778;0.258;2022-12-07T02:09:49;4.10;99.90
27423;DHT22;14878;50.778;0.258;2022-12-07T02:10:50;4.10;99.90
27423;DHT22;14878;50.778;0.258;2022-12-07T02:11:51;4.10;99.90
27423;DHT22;14878;50.778;0.258;2022-12-07T02:12:58;4.10;99.90
27423;DHT22;14878;50.778;0.258;2022-12-07T02:14:00;4.10;99.90
27423;DHT22;14878;50.778;0.258;2022-12-07T02:15:01;4.10;99.90
27423;DHT22;14878;50.778;0.258;2022-12-07T02:16:14;4.10;99.90
27423;DHT22;14878;50.778;0.258;2022-12-07T02:21:46;4.00;99.90
27423;DHT22;14878;50.778;0.258;2022-12-07T02:28:04;4.00;99.90
27423;DHT22;14878;50.778;0.258;2022-12-07T02:29:10;4.00;99.90
27423;DHT22;14878;50.778;0.258;2022-12-07T02:30:19;3.90;99.90
27423;DHT22;14878;50.778;0.258;2022-12-07T02:31:21;4.00;99.90
27423;DHT22;14878;50.778;0.258;2022-12-07T02:33:41;4.00;99.90
27423;DHT22;14878;50.778;0.258;2022-12-07T02:34:50;4.00;99.90
27423;DHT22;14878;50.778;0.258;2022-12-07T02:36:08;3.90;99.90
27423;DHT22;14878;50.778;0.258;2022-12-07T02:38:12;3.90;99.90
27423;DHT22;14878;50.778;0.258;2022-12-07T02:40:11;3.90;99.90
27423;DHT22;14878;50.778;0.258;2022-12-07T02:41:48;3.90;99.90
27423;DHT22;14878;50.778;0.258;2022-12-07T02:42:55;3.90;99.90
27423;DHT22;14878;50.778;0.258;2022-12-07T02:44:03;3.90;99.90
27423;DHT22;14878;50.778;0.258;2022-12-07T02:45:07;3.90;99.90
27423;DHT22;14878;50.778;0.258;2022-12-07T02:46:16;3.90;99.90
27423;DHT22;14878;50.778;0.258;2022-12-07T02:47:19;3.90;99.90
27423;DHT22;14878;50.778;0.258;2022-12-07T02:48:21;3.90;99.90
27423;DHT22;14878;50.778;0.258;2022-12-07T02:49:23;3.90;99.90
27423;DHT22;14878;50.778;0.258;2022-12-07T02:50:26;3.80;99.90
27423;DHT22;14878;50.778;0.258;2022-12-07T02:51:30;3.80;99.90
27423;DHT22;14878;50.778;0.258;2022-12-07T02:52:31;3.80;99.90
27423;DHT22;14878;50.778;0.258;2022-12-07T02:53:38;3.80;99.90
27423;DHT22;14878;50.778;0.258;2022-12-07T02:54:38;3.80;99.90
27423;DHT22;14878;50.778;0.258;2022-12-07T02:55:41;3.80;99.90
27423;DHT22;14878;50.778;0.258;2022-12-07T02:56:56;3.80;99.90
27423;DHT22;14878;50.778;0.258;2022-12-07T02:58:23;3.70;99.90
27423;DHT22;14878;50.778;0.258;2022-12-07T03:01:09;3.80;99.90
27423;DHT22;14878;50.778;0.258;2022-12-07T03:02:24;3.80;99.90
27423;DHT22;14878;50.778;0.258;2022-12-07T03:03:28;3.70;99.90
27423;DHT22;14878;50.778;0.258;2022-12-07T03:06:20;3.70;99.90
27423;DHT22;14878;50.778;0.258;2022-12-07T03:09:14;3.70;99.90
27423;DHT22;14878;50.778;0.258;2022-12-07T03:12:40;3.60;99.90
27423;DHT22;14878;50.778;0.258;2022-12-07T03:15:12;3.70;99.90
27423;DHT22;14878;50.778;0.258;2022-12-07T03:17:19;3.70;99.90
27423;DHT22;14878;50.778;0.258;2022-12-07T03:18:23;3.70;99.90
27423;DHT22;14878;50.778;0.258;2022-12-07T03:19:26;4.00;99.90
27423;DHT22;14878;50.778;0.258;2022-12-07T03:20:29;3.70;99.90
27423;DHT22;14878;50.778;0.258;2022-12-07T03:22:03;3.70;99.90
27423;DHT22;14878;50.778;0.258;2022-12-07T03:23:07;3.70;99.90
27423;DHT22;14878;50.778;0.258;2022-12-07T03:24:14;3.70;99.90
27423;DHT22;14878;50.778;0.258;2022-12-07T03:25:16;3.90;99.90
27423;DHT22;14878;50.778;0.258;2022-12-07T03:26:19;3.80;99.90
27423;DHT22;14878;50.778;0.258;2022-12-07T03:27:21;3.90;99.90
27423;DHT22;14878;50.778;0.258;2022-12-07T03:28:29;3.80;99.90
27423;DHT22;14878;50.778;0.258;2022-12-07T03:29:36;3.70;99.90
27423;DHT22;14878;50.778;0.258;2022-12-07T03:30:46;3.70;99.90
27423;DHT22;14878;50.778;0.258;2022-12-07T03:32:00;3.70;99.90
27423;DHT22;14878;50.778;0.258;2022-12-07T03:33:23;3.80;99.90
27423;DHT22;14878;50.778;0.258;2022-12-07T03:36:04;3.70;99.90
27423;DHT22;14878;50.778;0.258;2022-12-07T03:37:18;3.70;99.90
27423;DHT22;14878;50.778;0.258;2022-12-07T03:38:25;3.70;99.90
27423;DHT22;14878;50.778;0.258;2022-12-07T03:39:38;3.90;99.90
27423;DHT22;14878;50.778;0.258;2022-12-07T03:41:59;3.70;99.90
27423;DHT22;14878;50.778;0.258;2022-12-07T03:43:03;3.70;99.90
27423;DHT22;14878;50.778;0.258;2022-12-07T03:44:04;3.70;99.90
27423;DHT22;14878;50.778;0.258;2022-12-07T03:45:07;3.90;99.90
27423;DHT22;14878;50.778;0.258;2022-12-07T03:48:10;3.70;99.90
27423;DHT22;14878;50.778;0.258;2022-12-07T03:51:00;3.70;99.90
27423;DHT22;14878;50.778;0.258;2022-12-07T03:53:15;3.60;99.90
27423;DHT22;14878;50.778;0.258;2022-12-07T03:55:46;3.60;99.90
27423;DHT22;14878;50.778;0.258;2022-12-07T03:56:49;3.60;99.90
27423;DHT22;14878;50.778;0.258;2022-12-07T03:57:53;3.60;99.90
27423;DHT22;14878;50.778;0.258;2022-12-07T03:58:55;3.60;99.90
27423;DHT22;14878;50.778;0.258;2022-12-07T03:59:57;3.90;99.90
27423;DHT22;14878;50.778;0.258;2022-12-07T04:00:58;3.60;99.90
27423;DHT22;14878;50.778;0.258;2022-12-07T04:02:03;3.70;99.90
27423;DHT22;14878;50.778;0.258;2022-12-07T04:03:04;3.60;99.90
27423;DHT22;14878;50.778;0.258;2022-12-07T04:04:05;3.60;99.90
27423;DHT22;14878;50.778;0.258;2022-12-07T04:05:06;3.60;99.90
27423;DHT22;14878;50.778;0.258;2022-12-07T04:06:07;3.60;99.90
27423;DHT22;14878;50.778;0.258;2022-12-07T04:07:08;3.60;99.90
27423;DHT22;14878;50.778;0.258;2022-12-07T04:08:09;3.60;99.90
27423;DHT22;14878;50.778;0.258;2022-12-07T04:09:10;3.60;99.90
27423;DHT22;14878;50.778;0.258;2022-12-07T04:10:11;3.60;99.90
27423;DHT22;14878;50.778;0.258;2022-12-07T04:11:12;3.60;99.90
27423;DHT22;14878;50.778;0.258;2022-12-07T04:12:12;3.60;99.90
27423;DHT22;14878;50.778;0.258;2022-12-07T04:13:13;3.60;99.90
27423;DHT22;14878;50.778;0.258;2022-12-07T04:14:14;3.60;99.90
27423;DHT22;14878;50.778;0.258;2022-12-07T04:15:21;3.60;99.90
27423;DHT22;14878;50.778;0.258;2022-12-07T04:16:21;3.70;99.90
27423;DHT22;14878;50.778;0.258;2022-12-07T04:17:22;3.70;99.90
27423;DHT22;14878;50.778;0.258;2022-12-07T04:18:23;3.70;99.90
27423;DHT22;14878;50.778;0.258;2022-12-07T04:19:29;3.70;99.90
27423;DHT22;14878;50.778;0.258;2022-12-07T04:20:30;3.70;99.90
27423;DHT22;14878;50.778;0.258;2022-12-07T04:21:31;3.60;99.90
27423;DHT22;14878;50.778;0.258;2022-12-07T04:22:31;3.60;99.90
27423;DHT22;14878;50.778;0.258;2022-12-07T04:23:32;3.60;99.90
27423;DHT22;14878;50.778;0.258;2022-12-07T04:24:34;3.80;99.90
27423;DHT22;14878;50.778;0.258;2022-12-07T04:25:34;3.60;99.90
27423;DHT22;14878;50.778;0.258;2022-12-07T04:26:35;3.60;99.90
27423;DHT22;14878;50.778;0.258;2022-12-07T04:27:36;3.60;99.90
27423;DHT22;14878;50.778;0.258;2022-12-07T04:28:36;3.60;99.90
27423;DHT22;14878;50.778;0.258;2022-12-07T04:29:37;3.60;99.90
27423;DHT22;14878;50.778;0.258;2022-12-07T04:30:38;3.50;99.90
27423;DHT22;14878;50.778;0.258;2022-12-07T04:31:39;3.50;99.90
27423;DHT22;14878;50.778;0.258;2022-12-07T04:32:39;3.90;99.90
27423;DHT22;14878;50.778;0.258;2022-12-07T04:33:40;3.50;99.90
27423;DHT22;14878;50.778;0.258;2022-12-07T04:34:41;3.50;99.90
27423;DHT22;14878;50.778;0.258;2022-12-07T04:35:42;3.50;99.90
27423;DHT22;14878;50.778;0.258;2022-12-07T04:36:44;3.50;99.90
27423;DHT22;14878;50.778;0.258;2022-12-07T04:37:45;3.50;99.90
27423;DHT22;14878;50.778;0.258;2022-12-07T04:38:46;3.50;99.90
27423;DHT22;14878;50.778;0.258;2022-12-07T04:39:47;3.50;99.90
27423;DHT22;14878;50.778;0.258;2022-12-07T04:40:47;3.40;99.90
27423;DHT22;14878;50.778;0.258;2022-12-07T04:41:48;3.40;99.90
27423;DHT22;14878;50.778;0.258;2022-12-07T04:42:49;3.50;99.90
27423;DHT22;14878;50.778;0.258;2022-12-07T04:43:50;3.60;99.90
27423;DHT22;14878;50.778;0.258;2022-12-07T04:44:50;3.40;99.90
27423;DHT22;14878;50.778;0.258;2022-12-07T04:45:51;3.40;99.90
27423;DHT22;14878;50.778;0.258;2022-12-07T04:46:52;3.40;99.90
27423;DHT22;14878;50.778;0.258;2022-12-07T04:47:53;3.40;99.90
27423;DHT22;14878;50.778;0.258;2022-12-07T04:48:54;3.40;99.90
27423;DHT22;14878;50.778;0.258;2022-12-07T04:49:55;3.40;99.90
27423;DHT22;14878;50.778;0.258;2022-12-07T04:50:55;3.40;99.90
27423;DHT22;14878;50.778;0.258;2022-12-07T04:51:56;3.40;99.90
27423;DHT22;14878;50.778;0.258;2022-12-07T04:52:57;3.40;99.90
27423;DHT22;14878;50.778;0.258;2022-12-07T04:53:58;3.40;99.90
27423;DHT22;14878;50.778;0.258;2022-12-07T04:54:58;3.40;99.90
27423;DHT22;14878;50.778;0.258;2022-12-07T04:55:59;3.50;99.90
27423;DHT22;14878;50.778;0.258;2022-12-07T04:57:01;3.30;99.90
27423;DHT22;14878;50.778;0.258;2022-12-07T04:58:02;3.30;99.90
27423;DHT22;14878;50.778;0.258;2022-12-07T04:59:03;3.40;99.90
27423;DHT22;14878;50.778;0.258;2022-12-07T05:00:05;3.40;99.90
27423;DHT22;14878;50.778;0.258;2022-12-07T05:01:06;3.30;99.90
27423;DHT22;14878;50.778;0.258;2022-12-07T05:02:07;3.30;99.90
27423;DHT22;14878;50.778;0.258;2022-12-07T05:03:07;3.30;99.90
27423;DHT22;14878;50.778;0.258;2022-12-07T05:04:08;3.30;99.90
27423;DHT22;14878;50.778;0.258;2022-12-07T05:05:09;3.40;99.90
27423;DHT22;14878;50.778;0.258;2022-12-07T05:06:10;3.30;99.90
27423;DHT22;14878;50.778;0.258;2022-12-07T05:07:11;3.30;99.90
27423;DHT22;14878;50.778;0.258;2022-12-07T05:08:12;3.30;99.90
27423;DHT22;14878;50.778;0.258;2022-12-07T05:09:13;3.30;99.90
27423;DHT22;14878;50.778;0.258;2022-12-07T05:10:13;3.30;99.90
27423;DHT22;14878;50.778;0.258;2022-12-07T05:11:14;3.30;99.90
27423;DHT22;14878;50.778;0.258;2022-12-07T05:12:35;3.60;99.90
27423;DHT22;14878;50.778;0.258;2022-12-07T05:13:36;3.30;99.90
27423;DHT22;14878;50.778;0.258;2022-12-07T05:14:37;3.40;99.90
27423;DHT22;14878;50.778;0.258;2022-12-07T05:15:37;3.30;99.90
27423;DHT22;14878;50.778;0.258;2022-12-07T05:16:39;3.30;99.90
27423;DHT22;14878;50.778;0.258;2022-12-07T05:17:40;3.40;99.90
27423;DHT22;14878;50.778;0.258;2022-12-07T05:18:40;3.30;99.90
27423;DHT22;14878;50.778;0.258;2022-12-07T05:19:41;3.30;99.90
27423;DHT22;14878;50.778;0.258;2022-12-07T05:20:42;3.30;99.90
27423;DHT22;14878;50.778;0.258;2022-12-07T05:21:43;3.30;99.90
27423;DHT22;14878;50.778;0.258;2022-12-07T05:22:43;3.30;99.90
27423;DHT22;14878;50.778;0.258;2022-12-07T05:23:44;3.30;99.90
27423;DHT22;14878;50.778;0.258;2022-12-07T05:24:45;3.30;99.90
27423;DHT22;14878;50.778;0.258;2022-12-07T05:25:46;3.30;99.90
27423;DHT22;14878;50.778;0.258;2022-12-07T05:26:47;3.30;99.90
27423;DHT22;14878;50.778;0.258;2022-12-07T05:27:47;3.30;99.90
27423;DHT22;14878;50.778;0.258;2022-12-07T05:28:56;3.30;99.90
27423;DHT22;14878;50.778;0.258;2022-12-07T05:29:56;3.30;99.90
27423;DHT22;14878;50.778;0.258;2022-12-07T05:30:57;3.30;99.90
27423;DHT22;14878;50.778;0.258;2022-12-07T05:31:58;3.30;99.90
27423;DHT22;14878;50.778;0.258;2022-12-07T05:32:58;3.30;99.90
27423;DHT22;14878;50.778;0.258;2022-12-07T05:33:59;3.30;99.90
27423;DHT22;14878;50.778;0.258;2022-12-07T05:35:00;3.40;99.90
27423;DHT22;14878;50.778;0.258;2022-12-07T05:36:01;3.30;99.90
27423;DHT22;14878;50.778;0.258;2022-12-07T05:37:05;3.20;99.90
27423;DHT22;14878;50.778;0.258;2022-12-07T05:38:06;3.30;99.90
27423;DHT22;14878;50.778;0.258;2022-12-07T05:39:07;3.20;99.90
27423;DHT22;14878;50.778;0.258;2022-12-07T05:40:09;3.20;99.90
27423;DHT22;14878;50.778;0.258;2022-12-07T05:41:14;3.20;99.90
27423;DHT22;14878;50.778;0.258;2022-12-07T05:42:34;3.30;99.90
27423;DHT22;14878;50.778;0.258;2022-12-07T05:43:34;3.80;99.90
27423;DHT22;14878;50.778;0.258;2022-12-07T05:44:35;3.30;99.90
27423;DHT22;14878;50.778;0.258;2022-12-07T05:45:36;3.30;99.90
27423;DHT22;14878;50.778;0.258;2022-12-07T05:46:36;3.20;99.90
27423;DHT22;14878;50.778;0.258;2022-12-07T05:47:37;3.20;99.90
27423;DHT22;14878;50.778;0.258;2022-12-07T05:48:38;3.10;99.90
27423;DHT22;14878;50.778;0.258;2022-12-07T05:49:38;3.20;99.90
27423;DHT22;14878;50.778;0.258;2022-12-07T05:50:39;3.20;99.90
27423;DHT22;14878;50.778;0.258;2022-12-07T05:51:40;3.20;99.90
27423;DHT22;14878;50.778;0.258;2022-12-07T05:52:41;3.20;99.90
27423;DHT22;14878;50.778;0.258;2022-12-07T05:53:41;3.90;99.90
27423;DHT22;14878;50.778;0.258;2022-12-07T05:54:42;3.40;99.90
27423;DHT22;14878;50.778;0.258;2022-12-07T05:55:43;3.20;99.90
27423;DHT22;14878;50.778;0.258;2022-12-07T05:56:44;3.20;99.90
27423;DHT22;14878;50.778;0.258;2022-12-07T05:57:45;3.20;99.90
27423;DHT22;14878;50.778;0.258;2022-12-07T05:59:06;3.20;99.90
27423;DHT22;14878;50.778;0.258;2022-12-07T06:00:24;3.20;99.90
27423;DHT22;14878;50.778;0.258;2022-12-07T06:01:25;3.20;99.90
27423;DHT22;14878;50.778;0.258;2022-12-07T06:02:26;3.20;99.90
27423;DHT22;14878;50.778;0.258;2022-12-07T06:03:27;3.20;99.90
27423;DHT22;14878;50.778;0.258;2022-12-07T06:04:30;3.20;99.90
27423;DHT22;14878;50.778;0.258;2022-12-07T06:05:31;3.20;99.90
27423;DHT22;14878;50.778;0.258;2022-12-07T06:06:31;3.20;99.90
27423;DHT22;14878;50.778;0.258;2022-12-07T06:07:32;3.20;99.90
27423;DHT22;14878;50.778;0.258;2022-12-07T06:08:33;3.30;99.90
27423;DHT22;14878;50.778;0.258;2022-12-07T06:09:34;3.30;99.90
27423;DHT22;14878;50.778;0.258;2022-12-07T06:10:35;3.30;99.90
27423;DHT22;14878;50.778;0.258;2022-12-07T06:11:36;3.30;99.90
27423;DHT22;14878;50.778;0.258;2022-12-07T06:12:55;3.20;99.90
27423;DHT22;14878;50.778;0.258;2022-12-07T06:13:56;3.20;99.90
27423;DHT22;14878;50.778;0.258;2022-12-07T06:14:57;3.60;99.90
27423;DHT22;14878;50.778;0.258;2022-12-07T06:15:58;3.30;99.90
27423;DHT22;14878;50.778;0.258;2022-12-07T06:16:59;3.20;99.90
27423;DHT22;14878;50.778;0.258;2022-12-07T06:17:59;3.20;99.90
27423;DHT22;14878;50.778;0.258;2022-12-07T06:19:00;3.30;99.90
27423;DHT22;14878;50.778;0.258;2022-12-07T06:20:01;3.20;99.90
27423;DHT22;14878;50.778;0.258;2022-12-07T06:21:01;3.80;99.90
27423;DHT22;14878;50.778;0.258;2022-12-07T06:22:02;3.30;99.90
27423;DHT22;14878;50.778;0.258;2022-12-07T06:23:04;3.20;99.90
27423;DHT22;14878;50.778;0.258;2022-12-07T06:24:06;3.30;99.90
27423;DHT22;14878;50.778;0.258;2022-12-07T06:25:07;3.30;99.90
27423;DHT22;14878;50.778;0.258;2022-12-07T06:26:08;3.40;99.90
27423;DHT22;14878;50.778;0.258;2022-12-07T06:27:09;3.40;99.90
27423;DHT22;14878;50.778;0.258;2022-12-07T06:28:10;3.30;99.90
27423;DHT22;14878;50.778;0.258;2022-12-07T06:29:11;3.30;99.90
27423;DHT22;14878;50.778;0.258;2022-12-07T06:30:13;3.30;99.90
27423;DHT22;14878;50.778;0.258;2022-12-07T06:31:13;3.30;99.90
27423;DHT22;14878;50.778;0.258;2022-12-07T06:32:14;3.20;99.90
27423;DHT22;14878;50.778;0.258;2022-12-07T06:33:15;3.20;99.90
27423;DHT22;14878;50.778;0.258;2022-12-07T06:34:17;3.20;99.90
27423;DHT22;14878;50.778;0.258;2022-12-07T06:35:18;3.50;99.90
27423;DHT22;14878;50.778;0.258;2022-12-07T06:36:19;3.20;99.90
27423;DHT22;14878;50.778;0.258;2022-12-07T06:37:19;3.20;99.90
27423;DHT22;14878;50.778;0.258;2022-12-07T06:38:20;3.20;99.90
27423;DHT22;14878;50.778;0.258;2022-12-07T06:39:23;3.30;99.90
27423;DHT22;14878;50.778;0.258;2022-12-07T06:40:24;3.30;99.90
27423;DHT22;14878;50.778;0.258;2022-12-07T06:41:24;3.30;99.90
27423;DHT22;14878;50.778;0.258;2022-12-07T06:42:25;3.30;99.90
27423;DHT22;14878;50.778;0.258;2022-12-07T06:43:26;3.30;99.90
27423;DHT22;14878;50.778;0.258;2022-12-07T06:44:27;3.30;99.90
27423;DHT22;14878;50.778;0.258;2022-12-07T06:45:28;3.30;99.90
27423;DHT22;14878;50.778;0.258;2022-12-07T06:46:29;3.30;99.90
27423;DHT22;14878;50.778;0.258;2022-12-07T06:47:29;3.30;99.90
27423;DHT22;14878;50.778;0.258;2022-12-07T06:48:30;3.80;99.90
27423;DHT22;14878;50.778;0.258;2022-12-07T06:49:31;3.30;99.90
27423;DHT22;14878;50.778;0.258;2022-12-07T06:50:31;3.30;99.90
27423;DHT22;14878;50.778;0.258;2022-12-07T06:51:33;3.30;99.90
27423;DHT22;14878;50.778;0.258;2022-12-07T06:52:36;3.30;99.90
27423;DHT22;14878;50.778;0.258;2022-12-07T06:53:37;3.30;99.90
27423;DHT22;14878;50.778;0.258;2022-12-07T06:54:38;3.30;99.90
27423;DHT22;14878;50.778;0.258;2022-12-07T06:55:38;3.30;99.90
27423;DHT22;14878;50.778;0.258;2022-12-07T06:56:39;3.30;99.90
27423;DHT22;14878;50.778;0.258;2022-12-07T06:57:40;3.30;99.90
27423;DHT22;14878;50.778;0.258;2022-12-07T06:58:41;3.30;99.90
27423;DHT22;14878;50.778;0.258;2022-12-07T06:59:42;3.30;99.90
27423;DHT22;14878;50.778;0.258;2022-12-07T07:00:43;3.70;99.90
27423;DHT22;14878;50.778;0.258;2022-12-07T07:01:44;3.30;99.90
27423;DHT22;14878;50.778;0.258;2022-12-07T07:02:44;3.40;99.90
27423;DHT22;14878;50.778;0.258;2022-12-07T07:03:47;3.40;99.90
27423;DHT22;14878;50.778;0.258;2022-12-07T07:04:47;3.40;99.90
27423;DHT22;14878;50.778;0.258;2022-12-07T07:05:48;4.20;99.90
27423;DHT22;14878;50.778;0.258;2022-12-07T07:06:49;3.40;99.90
27423;DHT22;14878;50.778;0.258;2022-12-07T07:07:50;3.40;99.90
27423;DHT22;14878;50.778;0.258;2022-12-07T07:08:51;3.30;99.90
27423;DHT22;14878;50.778;0.258;2022-12-07T07:09:52;3.40;99.90
27423;DHT22;14878;50.778;0.258;2022-12-07T07:10:53;3.30;99.90
27423;DHT22;14878;50.778;0.258;2022-12-07T07:11:53;3.50;99.90
27423;DHT22;14878;50.778;0.258;2022-12-07T07:12:54;3.80;99.90
27423;DHT22;14878;50.778;0.258;2022-12-07T07:13:55;3.40;99.90
27423;DHT22;14878;50.778;0.258;2022-12-07T07:14:57;3.30;99.90
27423;DHT22;14878;50.778;0.258;2022-12-07T07:15:58;3.40;99.90
27423;DHT22;14878;50.778;0.258;2022-12-07T07:16:58;3.20;99.90